createdAt,value
2018-09-29T00:00:18.265Z,9.43
2018-09-29T00:02:47.338Z,9.57
2018-09-29T00:05:16.053Z,8.47
2018-09-29T00:07:44.482Z,7.23
2018-09-29T00:10:13.223Z,9.67
2018-09-29T00:12:42.114Z,7.67
2018-09-29T00:15:11.377Z,9.37
2018-09-29T00:17:39.756Z,6.83
2018-09-29T00:20:08.448Z,6.23
2018-09-29T00:22:36.951Z,5.47
2018-09-29T00:25:05.488Z,6.67
2018-09-29T00:27:33.996Z,7.67
2018-09-29T00:32:37.945Z,7.67
2018-09-29T00:35:06.258Z,6.77
2018-09-29T00:40:14.168Z,8.23
2018-09-29T00:42:42.509Z,7.47
2018-09-29T00:45:11.066Z,8.70
2018-09-29T00:47:39.550Z,6.77
2018-09-29T00:50:08.203Z,7.60
2018-09-29T00:52:36.558Z,9.70
2018-09-29T00:55:05.007Z,9.03
2018-09-29T00:57:33.555Z,7.07
2018-09-29T01:00:01.906Z,6.83
2018-09-29T01:02:30.493Z,7.87
2018-09-29T01:04:58.936Z,6.47
2018-09-29T01:07:27.334Z,5.50
2018-09-29T01:09:56.057Z,8.77
2018-09-29T01:12:24.657Z,6.33
2018-09-29T01:14:53.070Z,8.90
2018-09-29T01:17:21.676Z,10.57
2018-09-29T01:19:50.547Z,11.57
2018-09-29T01:22:19.271Z,9.50
2018-09-29T01:24:47.853Z,6.93
2018-09-29T01:27:16.314Z,7.37
2018-09-29T01:29:44.881Z,8.37
2018-09-29T01:32:13.308Z,10.23
2018-09-29T01:34:41.616Z,7.03
2018-09-29T01:37:10.080Z,10.73
2018-09-29T01:39:38.470Z,9.63
2018-09-29T01:42:07.563Z,7.63
2018-09-29T01:44:36.266Z,9.97
2018-09-29T01:47:04.848Z,9.07
2018-09-29T01:49:33.980Z,9.97
2018-09-29T01:52:02.333Z,8.80
2018-09-29T01:54:30.761Z,9.70
2018-09-29T01:56:59.126Z,8.73
2018-09-29T01:59:28.153Z,8.67
2018-09-29T02:01:56.645Z,10.77
2018-09-29T02:04:25.351Z,9.10
2018-09-29T02:06:53.971Z,8.27
2018-09-29T02:09:22.516Z,8.97
2018-09-29T02:11:51.545Z,10.00
2018-09-29T02:14:19.982Z,8.43
2018-09-29T02:16:48.675Z,10.00
2018-09-29T02:19:17.734Z,10.93
2018-09-29T02:21:46.338Z,8.80
2018-09-29T02:24:14.941Z,8.73
2018-09-29T02:26:43.504Z,8.13
2018-09-29T02:29:11.984Z,5.93
2018-09-29T02:31:40.483Z,11.27
2018-09-29T02:34:09.039Z,10.53
2018-09-29T02:36:37.587Z,11.00
2018-09-29T02:39:09.937Z,12.43
2018-09-29T02:41:38.362Z,9.40
2018-09-29T02:44:06.900Z,7.57
2018-09-29T02:46:35.596Z,8.93
2018-09-29T02:49:04.767Z,8.87
2018-09-29T02:51:34.006Z,8.87
2018-09-29T02:54:02.676Z,8.23
2018-09-29T02:56:31.443Z,8.00
2018-09-29T02:59:04.078Z,10.80
2018-09-29T03:01:32.677Z,11.53
2018-09-29T03:04:01.361Z,11.40
2018-09-29T03:06:30.046Z,10.43
2018-09-29T03:08:58.382Z,13.77
2018-09-29T03:11:27.955Z,10.60
2018-09-29T03:13:56.377Z,12.03
2018-09-29T03:16:26.101Z,8.43
2018-09-29T03:18:55.210Z,8.83
2018-09-29T03:21:24.401Z,9.50
2018-09-29T03:23:52.944Z,10.00
2018-09-29T03:26:21.515Z,10.37
2018-09-29T03:28:49.957Z,10.10
2018-09-29T03:31:18.449Z,10.70
2018-09-29T03:33:47.207Z,8.17
2018-09-29T03:36:15.799Z,7.90
2018-09-29T03:38:44.272Z,11.67
2018-09-29T03:41:12.597Z,10.00
2018-09-29T03:43:41.232Z,9.20
2018-09-29T03:46:10.124Z,9.77
2018-09-29T03:48:39.221Z,14.70
2018-09-29T03:51:07.785Z,10.27
2018-09-29T03:53:36.426Z,10.10
2018-09-29T03:56:04.974Z,10.07
2018-09-29T03:58:33.410Z,9.00
2018-09-29T04:01:02.137Z,13.00
2018-09-29T04:03:30.743Z,6.27
2018-09-29T04:05:59.320Z,10.30
2018-09-29T04:08:27.764Z,12.70
2018-09-29T04:10:56.573Z,9.30
2018-09-29T04:13:25.328Z,9.37
2018-09-29T04:15:54.603Z,13.23
2018-09-29T04:18:23.280Z,8.13
2018-09-29T04:20:51.965Z,8.10
2018-09-29T04:23:20.849Z,11.70
2018-09-29T04:25:49.176Z,8.40
2018-09-29T04:28:17.782Z,8.93
2018-09-29T04:30:46.527Z,6.43
2018-09-29T04:33:15.209Z,9.33
2018-09-29T04:35:43.631Z,7.83
2018-09-29T04:38:11.973Z,8.17
2018-09-29T04:40:40.810Z,6.57
2018-09-29T04:43:09.404Z,8.83
2018-09-29T04:45:38.614Z,12.13
2018-09-29T04:48:07.790Z,5.80
2018-09-29T04:50:36.226Z,8.63
2018-09-29T04:53:04.692Z,8.10
2018-09-29T04:55:33.205Z,6.60
2018-09-29T04:58:01.594Z,9.03
2018-09-29T05:00:30.134Z,15.60
2018-09-29T05:02:59.196Z,7.07
2018-09-29T05:05:27.631Z,6.03
2018-09-29T05:07:56.261Z,9.77
2018-09-29T05:10:24.736Z,9.67
2018-09-29T05:12:53.230Z,7.77
2018-09-29T05:15:23.119Z,11.30
2018-09-29T05:17:51.457Z,9.07
2018-09-29T05:20:19.928Z,11.70
2018-09-29T05:22:48.369Z,9.03
2018-09-29T05:25:16.768Z,9.27
2018-09-29T05:27:45.213Z,10.73
2018-09-29T05:30:13.630Z,7.33
2018-09-29T05:32:42.141Z,10.07
2018-09-29T05:35:10.667Z,9.17
2018-09-29T05:37:41.725Z,9.50
2018-09-29T05:40:10.129Z,6.00
2018-09-29T05:42:38.635Z,8.93
2018-09-29T05:45:07.153Z,8.13
2018-09-29T05:47:35.600Z,10.30
2018-09-29T05:50:04.314Z,10.93
2018-09-29T05:52:33.338Z,15.03
2018-09-29T05:55:01.907Z,12.33
2018-09-29T05:57:30.357Z,12.00
2018-09-29T05:59:59.185Z,11.60
2018-09-29T06:02:27.869Z,9.27
2018-09-29T06:04:56.837Z,11.17
2018-09-29T06:07:25.580Z,13.00
2018-09-29T06:09:54.102Z,9.90
2018-09-29T06:12:22.557Z,8.63
2018-09-29T06:14:52.671Z,11.10
2018-09-29T06:17:23.775Z,10.43
2018-09-29T06:19:52.442Z,8.43
2018-09-29T06:22:21.046Z,7.57
2018-09-29T06:24:49.514Z,11.40
2018-09-29T06:27:17.857Z,10.07
2018-09-29T06:29:46.704Z,6.47
2018-09-29T06:32:15.146Z,6.80
2018-09-29T06:34:43.483Z,8.50
2018-09-29T06:37:12.022Z,9.03
2018-09-29T06:39:40.476Z,5.97
2018-09-29T06:42:08.953Z,6.87
2018-09-29T06:44:37.826Z,9.93
2018-09-29T06:47:07.453Z,9.13
2018-09-29T06:49:35.896Z,6.90
2018-09-29T06:52:04.384Z,6.27
2018-09-29T06:54:32.752Z,8.90
2018-09-29T06:57:01.091Z,9.10
2018-09-29T06:59:29.400Z,12.80
2018-09-29T07:01:57.843Z,9.67
2018-09-29T07:04:26.297Z,10.43
2018-09-29T07:06:54.788Z,19.10
2018-09-29T07:09:23.212Z,9.77
2018-09-29T07:11:51.563Z,8.97
2018-09-29T07:14:19.883Z,19.13
2018-09-29T07:16:48.322Z,12.83
2018-09-29T07:19:16.754Z,11.17
2018-09-29T07:21:45.786Z,7.83
2018-09-29T07:24:14.082Z,12.20
2018-09-29T07:26:42.503Z,8.83
2018-09-29T07:29:11.052Z,11.20
2018-09-29T07:31:39.379Z,6.23
2018-09-29T07:34:07.880Z,11.23
2018-09-29T07:36:36.277Z,7.67
2018-09-29T07:39:07.369Z,13.97
2018-09-29T07:41:36.345Z,6.70
2018-09-29T07:44:05.020Z,6.27
2018-09-29T07:47:01.164Z,9.47
2018-09-29T07:49:45.852Z,6.47
2018-09-29T07:52:14.228Z,9.90
2018-09-29T07:54:42.642Z,8.53
2018-09-29T07:57:11.036Z,9.13
2018-09-29T07:59:39.528Z,5.60
2018-09-29T08:02:08.075Z,8.07
2018-09-29T08:04:36.580Z,8.57
2018-09-29T08:07:05.022Z,7.80
2018-09-29T08:09:33.562Z,6.73
2018-09-29T08:12:01.958Z,9.43
2018-09-29T08:14:59.144Z,8.07
2018-09-29T08:17:28.026Z,8.20
2018-09-29T08:19:56.365Z,9.40
2018-09-29T08:22:26.523Z,7.30
2018-09-29T08:24:57.685Z,8.23
2018-09-29T08:27:26.066Z,9.37
2018-09-29T08:29:54.425Z,5.00
2018-09-29T08:32:23.016Z,8.40
2018-09-29T08:34:51.464Z,7.17
2018-09-29T08:37:19.926Z,6.50
2018-09-29T08:39:48.238Z,9.90
2018-09-29T08:42:16.750Z,6.93
2018-09-29T08:44:45.171Z,9.30
2018-09-29T08:47:13.837Z,9.20
2018-09-29T08:49:42.140Z,10.88
2018-09-29T08:52:10.574Z,8.73
2018-09-29T08:54:39.047Z,9.23
2018-09-29T08:57:07.388Z,8.37
2018-09-29T08:59:35.686Z,7.43
2018-09-29T09:02:04.047Z,4.67
2018-09-29T09:04:32.449Z,8.83
2018-09-29T09:07:00.774Z,9.63
2018-09-29T09:09:29.102Z,7.53
2018-09-29T09:11:57.508Z,8.40
2018-09-29T09:14:25.819Z,7.42
2018-09-29T09:16:54.899Z,13.47
2018-09-29T09:19:23.177Z,9.97
2018-09-29T09:21:51.629Z,11.25
2018-09-29T09:24:20.168Z,7.00
2018-09-29T09:26:49.500Z,8.78
2018-09-29T09:29:17.856Z,10.27
2018-09-29T09:31:46.225Z,9.48
2018-09-29T09:34:14.571Z,9.33
2018-09-29T09:36:42.883Z,4.00
2018-09-29T09:39:12.111Z,7.33
2018-09-29T09:41:40.494Z,7.20
2018-09-29T09:44:09.464Z,5.27
2018-09-29T09:46:37.822Z,8.58
2018-09-29T09:49:06.509Z,9.38
2018-09-29T09:51:35.427Z,6.23
2018-09-29T09:54:03.726Z,5.25
2018-09-29T09:56:32.041Z,8.68
2018-09-29T09:59:00.419Z,6.72
2018-09-29T10:01:39.809Z,7.12
2018-09-29T10:04:08.324Z,6.30
2018-09-29T10:06:36.894Z,7.33
2018-09-29T10:09:08.326Z,6.73
2018-09-29T10:11:36.780Z,9.15
2018-09-29T10:14:05.149Z,9.80
2018-09-29T10:16:33.867Z,7.97
2018-09-29T10:19:02.188Z,7.97
2018-09-29T10:21:30.497Z,7.78
2018-09-29T10:23:58.841Z,8.47
2018-09-29T10:26:27.175Z,14.60
2018-09-29T10:28:55.677Z,12.75
2018-09-29T10:31:23.956Z,8.08
2018-09-29T10:33:52.369Z,8.48
2018-09-29T10:36:20.813Z,5.50
2018-09-29T10:38:49.050Z,4.78
2018-09-29T10:41:17.468Z,5.40
2018-09-29T10:43:45.767Z,7.12
2018-09-29T10:46:14.065Z,4.40
2018-09-29T10:48:42.429Z,5.67
2018-09-29T10:51:10.750Z,5.80
2018-09-29T10:53:39.105Z,7.00
2018-09-29T10:56:07.540Z,6.42
2018-09-29T10:58:36.640Z,4.00
2018-09-29T11:01:04.983Z,5.22
2018-09-29T11:03:33.386Z,4.25
2018-09-29T11:06:01.745Z,3.98
2018-09-29T11:08:30.094Z,5.17
2018-09-29T11:10:58.591Z,3.30
2018-09-29T11:13:26.876Z,5.10
2018-09-29T11:15:55.377Z,7.12
2018-09-29T11:18:23.768Z,4.10
2018-09-29T11:20:52.275Z,4.67
2018-09-29T11:23:20.641Z,5.22
2018-09-29T11:25:49.065Z,5.20
2018-09-29T11:28:17.508Z,8.23
2018-09-29T11:30:45.994Z,2.98
2018-09-29T11:33:14.289Z,5.65
2018-09-29T11:35:42.624Z,6.47
2018-09-29T11:38:11.132Z,7.25
2018-09-29T11:40:39.492Z,7.55
2018-09-29T11:43:08.083Z,4.45
2018-09-29T11:45:36.626Z,4.53
2018-09-29T11:48:04.929Z,2.37
2018-09-29T11:50:33.265Z,2.58
2018-09-29T11:53:01.650Z,5.53
2018-09-29T11:55:30.365Z,3.75
2018-09-29T11:57:58.796Z,3.10
2018-09-29T12:00:27.085Z,2.50
2018-09-29T12:02:55.571Z,5.53
2018-09-29T12:05:23.981Z,2.47
2018-09-29T12:07:52.560Z,6.03
2018-09-29T12:10:20.891Z,4.15
2018-09-29T12:12:49.215Z,2.15
2018-09-29T12:15:18.389Z,4.05
2018-09-29T12:17:46.744Z,2.75
2018-09-29T12:20:15.073Z,4.40
2018-09-29T12:22:43.556Z,2.75
2018-09-29T12:25:11.986Z,3.90
2018-09-29T12:27:40.424Z,7.55
2018-09-29T12:30:09.181Z,3.60
2018-09-29T12:32:42.792Z,5.12
2018-09-29T12:35:11.293Z,5.03
2018-09-29T12:37:39.989Z,5.08
2018-09-29T12:40:08.452Z,6.08
2018-09-29T12:42:37.041Z,6.50
2018-09-29T12:45:06.154Z,5.85
2018-09-29T12:47:35.205Z,4.25
2018-09-29T12:50:03.812Z,3.55
2018-09-29T12:52:33.032Z,4.87
2018-09-29T12:55:01.656Z,4.10
2018-09-29T12:57:30.258Z,7.03
2018-09-29T12:59:59.226Z,4.47
2018-09-29T13:02:27.711Z,2.70
2018-09-29T13:04:56.308Z,4.03
2018-09-29T13:07:25.289Z,4.72
2018-09-29T13:09:54.092Z,5.20
2018-09-29T13:12:22.827Z,5.53
2018-09-29T13:14:51.596Z,6.20
2018-09-29T13:17:20.268Z,5.83
2018-09-29T13:19:49.033Z,4.00
2018-09-29T13:22:18.001Z,5.03
2018-09-29T13:24:46.805Z,3.22
2018-09-29T13:27:15.896Z,4.83
2018-09-29T13:29:44.540Z,3.98
2018-09-29T13:32:13.087Z,5.55
2018-09-29T13:34:41.572Z,3.42
2018-09-29T13:37:11.247Z,6.30
2018-09-29T13:39:40.789Z,3.60
2018-09-29T13:42:09.363Z,3.37
2018-09-29T13:44:37.810Z,5.65
2018-09-29T13:47:06.522Z,6.47
2018-09-29T13:49:34.966Z,6.00
2018-09-29T13:52:03.612Z,5.65
2018-09-29T13:54:32.023Z,5.65
2018-09-29T13:57:00.584Z,5.50
2018-09-29T13:59:29.232Z,1.65
2018-09-29T14:01:58.241Z,5.42
2018-09-29T14:04:27.264Z,4.20
2018-09-29T14:06:56.280Z,2.95
2018-09-29T14:09:24.694Z,6.83
2018-09-29T14:11:53.641Z,5.60
2018-09-29T14:14:22.080Z,6.35
2018-09-29T14:16:50.516Z,3.98
2018-09-29T14:19:18.906Z,5.10
2018-09-29T14:21:47.356Z,6.97
2018-09-29T14:24:15.687Z,4.50
2018-09-29T14:26:44.080Z,3.52
2018-09-29T14:29:12.652Z,4.17
2018-09-29T14:31:41.433Z,4.95
2018-09-29T14:34:10.046Z,2.75
2018-09-29T14:36:39.129Z,3.10
2018-09-29T14:39:08.870Z,3.95
2018-09-29T14:41:38.993Z,6.05
2018-09-29T14:44:07.959Z,5.55
2018-09-29T14:46:37.063Z,5.33
2018-09-29T14:49:05.589Z,4.00
2018-09-29T14:51:33.974Z,7.47
2018-09-29T14:54:02.644Z,4.75
2018-09-29T14:56:30.999Z,6.78
2018-09-29T14:58:59.494Z,5.90
2018-09-29T15:01:27.917Z,3.35
2018-09-29T15:03:56.646Z,3.12
2018-09-29T15:06:25.270Z,4.62
2018-09-29T15:08:53.880Z,4.95
2018-09-29T15:11:22.298Z,4.12
2018-09-29T15:13:50.710Z,4.15
2018-09-29T15:16:19.662Z,4.60
2018-09-29T15:18:48.063Z,4.60
2018-09-29T15:21:17.136Z,7.22
2018-09-29T15:23:45.473Z,7.35
2018-09-29T15:26:14.012Z,3.87
2018-09-29T15:28:42.696Z,3.20
2018-09-29T15:31:11.109Z,5.22
2018-09-29T15:33:40.364Z,4.65
2018-09-29T15:36:08.731Z,5.87
2018-09-29T15:38:37.125Z,4.00
2018-09-29T15:41:05.532Z,3.22
2018-09-29T15:43:33.909Z,8.83
2018-09-29T15:46:02.323Z,11.57
2018-09-29T15:48:30.908Z,8.85
2018-09-29T15:50:59.470Z,5.80
2018-09-29T15:53:28.009Z,6.10
2018-09-29T15:55:56.362Z,5.47
2018-09-29T15:58:24.793Z,4.33
2018-09-29T16:00:53.091Z,3.62
2018-09-29T16:03:21.448Z,7.25
2018-09-29T16:05:49.910Z,8.45
2018-09-29T16:08:18.266Z,6.15
2018-09-29T16:10:47.182Z,6.92
2018-09-29T16:13:15.510Z,4.17
2018-09-29T16:15:43.863Z,5.08
2018-09-29T16:18:13.154Z,6.42
2018-09-29T16:20:41.644Z,5.62
2018-09-29T16:23:10.091Z,3.45
2018-09-29T16:25:38.634Z,6.58
2018-09-29T16:28:06.956Z,7.80
2018-09-29T16:30:35.313Z,4.65
2018-09-29T16:33:04.652Z,5.90
2018-09-29T16:35:33.229Z,6.92
2018-09-29T16:38:01.877Z,9.40
2018-09-29T16:40:30.226Z,6.97
2018-09-29T16:42:58.621Z,7.15
2018-09-29T16:45:27.218Z,6.70
2018-09-29T16:47:55.613Z,7.28
2018-09-29T16:50:24.139Z,7.03
2018-09-29T16:52:52.887Z,5.72
2018-09-29T16:55:21.214Z,8.48
2018-09-29T16:57:49.513Z,6.00
2018-09-29T17:00:17.936Z,7.45
2018-09-29T17:02:46.241Z,6.50
2018-09-29T17:05:14.561Z,4.83
2018-09-29T17:07:43.038Z,6.97
2018-09-29T17:10:11.557Z,7.25
2018-09-29T17:12:39.945Z,6.12
2018-09-29T17:15:08.422Z,6.47
2018-09-29T17:17:37.065Z,5.65
2018-09-29T17:20:05.509Z,7.47
2018-09-29T17:22:33.864Z,8.80
2018-09-29T17:25:02.251Z,7.67
2018-09-29T17:27:30.894Z,7.58
2018-09-29T17:29:59.184Z,8.70
2018-09-29T17:32:27.631Z,5.97
2018-09-29T17:34:56.065Z,6.13
2018-09-29T17:37:24.426Z,7.20
2018-09-29T17:39:52.835Z,9.28
2018-09-29T17:42:21.196Z,8.68
2018-09-29T17:44:49.663Z,6.60
2018-09-29T17:47:18.055Z,6.67
2018-09-29T17:49:46.411Z,6.33
2018-09-29T17:52:14.780Z,6.55
2018-09-29T17:54:43.074Z,6.27
2018-09-29T17:57:11.709Z,8.03
2018-09-29T17:59:40.387Z,10.23
2018-09-29T18:02:08.785Z,4.55
2018-09-29T18:04:37.360Z,8.55
2018-09-29T18:07:06.254Z,8.83
2018-09-29T18:09:34.630Z,6.40
2018-09-29T18:12:03.113Z,7.93
2018-09-29T18:14:31.673Z,8.87
2018-09-29T18:17:00.161Z,6.63
2018-09-29T18:19:29.142Z,7.00
2018-09-29T18:21:58.474Z,9.40
2018-09-29T18:24:26.963Z,7.92
2018-09-29T18:26:55.673Z,8.77
2018-09-29T18:29:24.584Z,11.23
2018-09-29T18:31:53.065Z,12.47
2018-09-29T18:34:21.857Z,11.55
2018-09-29T18:36:50.392Z,10.47
2018-09-29T18:39:18.898Z,10.17
2018-09-29T18:41:47.467Z,11.57
2018-09-29T18:44:15.801Z,10.93
2018-09-29T18:46:44.429Z,10.97
2018-09-29T18:49:12.901Z,19.67
2018-09-29T18:51:41.407Z,11.67
2018-09-29T18:54:10.110Z,11.13
2018-09-29T18:56:38.519Z,12.40
2018-09-29T18:59:07.064Z,15.80
2018-09-29T19:01:35.525Z,12.57
2018-09-29T19:04:04.148Z,15.83
2018-09-29T19:06:32.508Z,18.70
2018-09-29T19:09:00.890Z,19.07
2018-09-29T19:11:29.438Z,20.50
2018-09-29T19:13:57.767Z,20.43
2018-09-29T19:16:26.205Z,18.47
2018-09-29T19:18:55.209Z,17.60
2018-09-29T19:21:23.579Z,20.90
2018-09-29T19:23:51.914Z,19.50
2018-09-29T19:26:20.690Z,15.93
2018-09-29T19:28:49.037Z,14.70
2018-09-29T19:31:17.433Z,11.03
2018-09-29T19:33:45.929Z,13.23
2018-09-29T19:36:14.315Z,9.40
2018-09-29T19:38:42.726Z,12.57
2018-09-29T19:41:11.360Z,8.27
2018-09-29T19:43:39.851Z,14.77
2018-09-29T19:46:08.367Z,7.97
2018-09-29T19:48:36.952Z,8.03
2018-09-29T19:51:05.468Z,9.60
2018-09-29T19:53:33.899Z,10.97
2018-09-29T19:56:02.210Z,10.77
2018-09-29T19:58:30.610Z,10.87
2018-09-29T20:00:58.961Z,10.23
2018-09-29T20:03:27.299Z,9.57
2018-09-29T20:05:55.786Z,13.80
2018-09-29T20:08:24.676Z,13.47
2018-09-29T20:10:53.133Z,14.13
2018-09-29T20:13:21.570Z,17.17
2018-09-29T20:15:49.899Z,15.10
2018-09-29T20:18:18.291Z,14.53
2018-09-29T20:20:46.787Z,17.33
2018-09-29T20:23:15.306Z,13.80
2018-09-29T20:25:44.010Z,17.00
2018-09-29T20:28:12.542Z,20.23
2018-09-29T20:30:40.998Z,16.53
2018-09-29T20:33:09.456Z,17.73
2018-09-29T20:35:37.974Z,14.93
2018-09-29T20:38:06.510Z,14.23
2018-09-29T20:40:35.089Z,17.27
2018-09-29T20:43:03.601Z,15.03
2018-09-29T20:45:32.133Z,19.40
2018-09-29T20:48:00.552Z,16.00
2018-09-29T20:50:28.922Z,17.87
2018-09-29T20:52:57.407Z,16.07
2018-09-29T20:55:25.865Z,16.93
2018-09-29T20:57:54.358Z,16.87
2018-09-29T21:00:22.713Z,13.87
2018-09-29T21:02:51.214Z,12.63
2018-09-29T21:05:19.876Z,11.93
2018-09-29T21:07:48.357Z,12.73
2018-09-29T21:10:17.028Z,14.67
2018-09-29T21:12:45.596Z,14.10
2018-09-29T21:15:13.957Z,13.33
2018-09-29T21:17:42.421Z,12.00
2018-09-29T21:20:10.943Z,13.57
2018-09-29T21:22:39.625Z,14.13
2018-09-29T21:25:08.034Z,11.63
2018-09-29T21:27:36.476Z,16.63
2018-09-29T21:30:04.895Z,14.53
2018-09-29T21:32:33.249Z,14.40
2018-09-29T21:35:01.742Z,13.80
2018-09-29T21:37:30.218Z,13.50
2018-09-29T21:39:58.560Z,12.37
2018-09-29T21:42:26.943Z,15.93
2018-09-29T21:44:55.526Z,15.40
2018-09-29T21:47:24.000Z,14.73
2018-09-29T21:49:52.346Z,14.03
2018-09-29T21:52:20.789Z,14.47
2018-09-29T21:54:49.454Z,18.03
2018-09-29T21:57:17.880Z,18.23
2018-09-29T21:59:46.396Z,17.03
2018-09-29T22:02:33.778Z,17.97
2018-09-29T22:05:05.804Z,14.47
2018-09-29T22:07:34.744Z,17.23
2018-09-29T22:10:03.173Z,20.03
2018-09-29T22:12:31.861Z,19.13
2018-09-29T22:15:00.268Z,14.57
2018-09-29T22:17:28.859Z,14.97
2018-09-29T22:19:57.452Z,13.27
2018-09-29T22:22:26.049Z,13.13
2018-09-29T22:24:54.360Z,12.97
2018-09-29T22:27:22.822Z,12.03
2018-09-29T22:29:51.272Z,12.77
2018-09-29T22:32:19.649Z,11.43
2018-09-29T22:34:48.007Z,14.37
2018-09-29T22:37:16.559Z,12.97
2018-09-29T22:39:51.551Z,15.30
2018-09-29T22:42:19.906Z,12.70
2018-09-29T22:44:48.548Z,11.53
2018-09-29T22:47:17.034Z,12.40
2018-09-29T22:49:45.475Z,15.63
2018-09-29T22:52:13.892Z,12.10
2018-09-29T22:54:42.457Z,12.77
2018-09-29T22:57:11.023Z,11.93
2018-09-29T22:59:39.560Z,10.63
2018-09-29T23:02:08.165Z,13.77
2018-09-29T23:04:37.470Z,10.80
2018-09-29T23:07:05.956Z,11.40
2018-09-29T23:09:34.326Z,15.10
2018-09-29T23:12:02.670Z,13.60
2018-09-29T23:14:31.119Z,15.40
2018-09-29T23:16:59.716Z,13.93
2018-09-29T23:19:28.069Z,14.23
2018-09-29T23:21:56.775Z,12.43
2018-09-29T23:24:25.237Z,14.40
2018-09-29T23:26:53.839Z,12.87
2018-09-29T23:29:22.436Z,13.23
2018-09-29T23:31:50.810Z,13.17
2018-09-29T23:34:19.173Z,14.17
2018-09-29T23:36:47.477Z,15.67
2018-09-29T23:39:15.914Z,12.50
2018-09-29T23:41:44.488Z,13.40
2018-09-29T23:44:13.394Z,12.67
2018-09-29T23:46:41.733Z,13.83
2018-09-29T23:49:10.140Z,13.10
2018-09-29T23:51:38.890Z,11.93
2018-09-29T23:54:07.390Z,11.20
2018-09-29T23:56:35.764Z,13.40
2018-09-29T23:59:04.349Z,14.70
